sensor_id;sensor_type;location;lat;lon;timestamp;pressure;altitude;pressure_sealevel;temperature;humidity
13235;BME280;6683;48.506;9.050;2023-06-22T00:00:15;98077.78;;;24.81;55.86
13235;BME280;6683;48.506;9.050;2023-06-22T00:03:18;98061.91;;;24.74;56.04
13235;BME280;6683;48.506;9.050;2023-06-22T00:06:21;98073.25;;;24.71;56.03
13235;BME280;6683;48.506;9.050;2023-06-22T00:09:23;98078.66;;;24.66;56.15
13235;BME280;6683;48.506;9.050;2023-06-22T00:12:26;98094.38;;;24.59;56.11
13235;BME280;6683;48.506;9.050;2023-06-22T00:15:29;98087.41;;;24.48;55.96
13235;BME280;6683;48.506;9.050;2023-06-22T00:18:31;98083.16;;;24.37;56.26
13235;BME280;6683;48.506;9.050;2023-06-22T00:21:34;98081.84;;;24.29;56.40
13235;BME280;6683;48.506;9.050;2023-06-22T00:24:36;98079.72;;;24.21;56.51
13235;BME280;6683;48.506;9.050;2023-06-22T00:27:40;98078.69;;;24.12;56.59
13235;BME280;6683;48.506;9.050;2023-06-22T00:30:42;98069.28;;;24.05;56.67
13235;BME280;6683;48.506;9.050;2023-06-22T00:33:46;98066.84;;;23.98;56.68
13235;BME280;6683;48.506;9.050;2023-06-22T00:36:51;98059.06;;;23.92;57.18
13235;BME280;6683;48.506;9.050;2023-06-22T00:39:53;98067.19;;;23.81;57.13
13235;BME280;6683;48.506;9.050;2023-06-22T00:42:57;98055.63;;;23.71;57.58
13235;BME280;6683;48.506;9.050;2023-06-22T00:46:00;98050.22;;;23.66;57.72
13235;BME280;6683;48.506;9.050;2023-06-22T00:49:02;98068.31;;;23.60;57.92
13235;BME280;6683;48.506;9.050;2023-06-22T00:52:07;98080.47;;;23.53;57.81
13235;BME280;6683;48.506;9.050;2023-06-22T00:55:10;98083.13;;;23.43;58.05
13235;BME280;6683;48.506;9.050;2023-06-22T00:58:14;98078.84;;;23.37;58.43
13235;BME280;6683;48.506;9.050;2023-06-22T01:01:16;98084.78;;;23.34;58.50
13235;BME280;6683;48.506;9.050;2023-06-22T01:04:24;98103.88;;;23.27;58.58
13235;BME280;6683;48.506;9.050;2023-06-22T01:07:41;98100.63;;;23.20;58.50
13235;BME280;6683;48.506;9.050;2023-06-22T01:10:48;98094.72;;;23.13;58.65
13235;BME280;6683;48.506;9.050;2023-06-22T01:14:00;98093.91;;;23.08;58.78
13235;BME280;6683;48.506;9.050;2023-06-22T01:17:08;98096.06;;;23.00;58.77
13235;BME280;6683;48.506;9.050;2023-06-22T01:20:13;98096.59;;;22.92;58.98
13235;BME280;6683;48.506;9.050;2023-06-22T01:23:26;98088.78;;;22.86;59.19
13235;BME280;6683;48.506;9.050;2023-06-22T01:26:38;98078.81;;;22.81;59.29
13235;BME280;6683;48.506;9.050;2023-06-22T01:29:45;98084.19;;;22.76;59.46
13235;BME280;6683;48.506;9.050;2023-06-22T01:32:48;98092.50;;;22.70;59.68
13235;BME280;6683;48.506;9.050;2023-06-22T01:35:51;98085.50;;;22.64;59.95
13235;BME280;6683;48.506;9.050;2023-06-22T01:38:54;98089.00;;;22.59;60.07
13235;BME280;6683;48.506;9.050;2023-06-22T01:41:59;98092.19;;;22.56;59.93
13235;BME280;6683;48.506;9.050;2023-06-22T01:45:05;98088.69;;;22.51;60.09
13235;BME280;6683;48.506;9.050;2023-06-22T01:48:09;98091.34;;;22.46;59.98
13235;BME280;6683;48.506;9.050;2023-06-22T01:51:11;98078.69;;;22.41;60.39
13235;BME280;6683;48.506;9.050;2023-06-22T01:54:14;98066.03;;;22.37;60.24
13235;BME280;6683;48.506;9.050;2023-06-22T01:57:16;98077.06;;;22.35;60.33
13235;BME280;6683;48.506;9.050;2023-06-22T02:00:22;98094.81;;;22.31;60.78
13235;BME280;6683;48.506;9.050;2023-06-22T02:03:31;98103.38;;;22.28;60.93
13235;BME280;6683;48.506;9.050;2023-06-22T02:06:38;98098.81;;;22.23;60.85
13235;BME280;6683;48.506;9.050;2023-06-22T02:09:44;98097.19;;;22.22;60.97
13235;BME280;6683;48.506;9.050;2023-06-22T02:12:48;98089.94;;;22.23;61.35
13235;BME280;6683;48.506;9.050;2023-06-22T02:15:53;98087.78;;;22.25;61.18
13235;BME280;6683;48.506;9.050;2023-06-22T02:18:56;98077.59;;;22.27;61.39
13235;BME280;6683;48.506;9.050;2023-06-22T02:22:04;98082.69;;;22.28;61.37
13235;BME280;6683;48.506;9.050;2023-06-22T02:25:07;98082.41;;;22.30;61.69
13235;BME280;6683;48.506;9.050;2023-06-22T02:28:09;98091.56;;;22.29;61.38
13235;BME280;6683;48.506;9.050;2023-06-22T02:31:13;98100.16;;;22.26;61.88
13235;BME280;6683;48.506;9.050;2023-06-22T02:34:17;98098.00;;;22.23;61.57
13235;BME280;6683;48.506;9.050;2023-06-22T02:37:20;98095.59;;;22.21;61.65
13235;BME280;6683;48.506;9.050;2023-06-22T02:40:26;98077.00;;;22.20;62.13
13235;BME280;6683;48.506;9.050;2023-06-22T02:43:28;98080.78;;;22.19;61.84
13235;BME280;6683;48.506;9.050;2023-06-22T02:46:32;98065.72;;;22.18;62.16
13235;BME280;6683;48.506;9.050;2023-06-22T02:49:35;98056.81;;;22.17;61.91
13235;BME280;6683;48.506;9.050;2023-06-22T02:52:37;98057.91;;;22.16;62.28
13235;BME280;6683;48.506;9.050;2023-06-22T02:55:40;98057.38;;;22.14;62.23
13235;BME280;6683;48.506;9.050;2023-06-22T02:58:43;98055.19;;;22.11;62.18
13235;BME280;6683;48.506;9.050;2023-06-22T03:01:46;98069.44;;;22.07;62.12
13235;BME280;6683;48.506;9.050;2023-06-22T03:04:49;98064.59;;;22.04;62.27
13235;BME280;6683;48.506;9.050;2023-06-22T03:07:54;98065.91;;;22.01;62.54
13235;BME280;6683;48.506;9.050;2023-06-22T03:10:56;98059.19;;;21.99;62.51
13235;BME280;6683;48.506;9.050;2023-06-22T03:13:59;98061.31;;;21.97;62.43
13235;BME280;6683;48.506;9.050;2023-06-22T03:17:04;98053.81;;;21.94;62.54
13235;BME280;6683;48.506;9.050;2023-06-22T03:20:08;98057.53;;;21.93;62.37
13235;BME280;6683;48.506;9.050;2023-06-22T03:23:11;98054.31;;;21.91;62.58
13235;BME280;6683;48.506;9.050;2023-06-22T03:26:17;98052.16;;;21.88;62.50
13235;BME280;6683;48.506;9.050;2023-06-22T03:29:20;98052.94;;;21.83;62.49
13235;BME280;6683;48.506;9.050;2023-06-22T03:32:24;98052.88;;;21.78;62.50
13235;BME280;6683;48.506;9.050;2023-06-22T03:35:28;98056.34;;;21.74;62.76
13235;BME280;6683;48.506;9.050;2023-06-22T03:38:31;98049.31;;;21.68;62.66
13235;BME280;6683;48.506;9.050;2023-06-22T03:41:33;98057.09;;;21.64;62.64
13235;BME280;6683;48.506;9.050;2023-06-22T03:44:36;98049.56;;;21.61;62.81
13235;BME280;6683;48.506;9.050;2023-06-22T03:47:39;98047.41;;;21.58;62.58
13235;BME280;6683;48.506;9.050;2023-06-22T03:50:42;98049.28;;;21.58;62.73
13235;BME280;6683;48.506;9.050;2023-06-22T03:53:45;98050.59;;;21.55;62.77
13235;BME280;6683;48.506;9.050;2023-06-22T03:56:47;98042.25;;;21.52;62.95
13235;BME280;6683;48.506;9.050;2023-06-22T03:59:49;98036.84;;;21.46;62.83
13235;BME280;6683;48.506;9.050;2023-06-22T04:02:53;98037.38;;;21.43;63.11
13235;BME280;6683;48.506;9.050;2023-06-22T04:05:55;98038.44;;;21.42;63.07
13235;BME280;6683;48.506;9.050;2023-06-22T04:08:57;98028.78;;;21.41;63.29
13235;BME280;6683;48.506;9.050;2023-06-22T04:12:01;98032.78;;;21.39;63.26
13235;BME280;6683;48.506;9.050;2023-06-22T04:15:04;98040.56;;;21.35;63.35
13235;BME280;6683;48.506;9.050;2023-06-22T04:18:08;98041.59;;;21.29;63.31
13235;BME280;6683;48.506;9.050;2023-06-22T04:21:11;98033.53;;;21.29;63.29
13235;BME280;6683;48.506;9.050;2023-06-22T04:24:13;98026.28;;;21.30;63.58
13235;BME280;6683;48.506;9.050;2023-06-22T04:27:16;98020.13;;;21.29;63.48
13235;BME280;6683;48.506;9.050;2023-06-22T04:30:19;98021.72;;;21.30;63.67
13235;BME280;6683;48.506;9.050;2023-06-22T04:33:22;98013.41;;;21.32;63.67
13235;BME280;6683;48.506;9.050;2023-06-22T04:36:26;98008.34;;;21.35;63.68
13235;BME280;6683;48.506;9.050;2023-06-22T04:39:31;98007.81;;;21.38;63.84
13235;BME280;6683;48.506;9.050;2023-06-22T04:42:34;98006.47;;;21.41;63.85
13235;BME280;6683;48.506;9.050;2023-06-22T04:45:38;98016.44;;;21.45;63.87
13235;BME280;6683;48.506;9.050;2023-06-22T04:48:41;97999.00;;;21.48;64.02
13235;BME280;6683;48.506;9.050;2023-06-22T04:51:43;97996.59;;;21.52;63.76
13235;BME280;6683;48.506;9.050;2023-06-22T04:54:46;98006.84;;;21.55;64.08
13235;BME280;6683;48.506;9.050;2023-06-22T04:57:51;97993.94;;;21.57;64.15
13235;BME280;6683;48.506;9.050;2023-06-22T05:00:54;97995.59;;;21.63;64.42
13235;BME280;6683;48.506;9.050;2023-06-22T05:03:59;97989.72;;;21.71;64.16
13235;BME280;6683;48.506;9.050;2023-06-22T05:07:03;97986.03;;;21.82;64.39
13235;BME280;6683;48.506;9.050;2023-06-22T05:10:07;97987.66;;;21.93;64.32
13235;BME280;6683;48.506;9.050;2023-06-22T05:13:10;97982.88;;;22.05;64.54
13235;BME280;6683;48.506;9.050;2023-06-22T05:16:12;97979.66;;;22.18;64.23
13235;BME280;6683;48.506;9.050;2023-06-22T05:19:16;97985.09;;;22.33;64.68
13235;BME280;6683;48.506;9.050;2023-06-22T05:22:19;97979.97;;;22.47;64.67
13235;BME280;6683;48.506;9.050;2023-06-22T05:25:21;97980.84;;;22.62;64.58
13235;BME280;6683;48.506;9.050;2023-06-22T05:28:24;97978.97;;;22.78;64.34
13235;BME280;6683;48.506;9.050;2023-06-22T05:31:27;97977.88;;;22.94;64.45
13235;BME280;6683;48.506;9.050;2023-06-22T05:34:31;97988.09;;;23.12;64.40
13235;BME280;6683;48.506;9.050;2023-06-22T05:37:34;98000.19;;;23.30;64.31
13235;BME280;6683;48.506;9.050;2023-06-22T05:40:37;97989.91;;;23.47;64.31
13235;BME280;6683;48.506;9.050;2023-06-22T05:43:39;97993.91;;;23.64;64.15
13235;BME280;6683;48.506;9.050;2023-06-22T05:46:42;97990.59;;;23.82;63.87
13235;BME280;6683;48.506;9.050;2023-06-22T05:49:48;97988.38;;;24.00;63.58
13235;BME280;6683;48.506;9.050;2023-06-22T05:52:50;97987.75;;;24.18;63.19
13235;BME280;6683;48.506;9.050;2023-06-22T05:55:52;97990.66;;;24.31;63.04
13235;BME280;6683;48.506;9.050;2023-06-22T05:58:55;97991.34;;;24.47;62.57
13235;BME280;6683;48.506;9.050;2023-06-22T06:01:57;97985.31;;;24.60;62.21
13235;BME280;6683;48.506;9.050;2023-06-22T06:05:01;97989.03;;;24.69;61.68
13235;BME280;6683;48.506;9.050;2023-06-22T06:08:05;97986.06;;;24.76;61.30
13235;BME280;6683;48.506;9.050;2023-06-22T06:11:08;97983.03;;;24.82;61.38
13235;BME280;6683;48.506;9.050;2023-06-22T06:14:11;97981.84;;;24.93;61.26
13235;BME280;6683;48.506;9.050;2023-06-22T06:17:13;97974.44;;;25.04;61.13
13235;BME280;6683;48.506;9.050;2023-06-22T06:20:19;97982.72;;;25.17;60.91
13235;BME280;6683;48.506;9.050;2023-06-22T06:23:22;97979.31;;;25.30;60.91
13235;BME280;6683;48.506;9.050;2023-06-22T06:26:24;97970.56;;;25.44;60.52
13235;BME280;6683;48.506;9.050;2023-06-22T06:29:30;97971.56;;;25.53;60.23
13235;BME280;6683;48.506;9.050;2023-06-22T06:32:33;97973.63;;;25.61;59.77
13235;BME280;6683;48.506;9.050;2023-06-22T06:35:37;97971.09;;;25.69;59.52
13235;BME280;6683;48.506;9.050;2023-06-22T06:38:39;97973.09;;;25.82;59.44
13235;BME280;6683;48.506;9.050;2023-06-22T06:41:41;97969.66;;;25.95;59.37
13235;BME280;6683;48.506;9.050;2023-06-22T06:44:44;97971.38;;;26.10;59.11
13235;BME280;6683;48.506;9.050;2023-06-22T06:47:46;97970.09;;;26.26;58.91
13235;BME280;6683;48.506;9.050;2023-06-22T06:50:50;97974.47;;;26.41;58.50
13235;BME280;6683;48.506;9.050;2023-06-22T06:53:52;97974.81;;;26.53;58.33
13235;BME280;6683;48.506;9.050;2023-06-22T06:56:55;97966.84;;;26.61;58.01
13235;BME280;6683;48.506;9.050;2023-06-22T06:59:58;97961.25;;;26.71;57.75
13235;BME280;6683;48.506;9.050;2023-06-22T07:03:00;97971.38;;;26.84;57.13
13235;BME280;6683;48.506;9.050;2023-06-22T07:06:05;97960.56;;;26.98;56.87
13235;BME280;6683;48.506;9.050;2023-06-22T07:09:07;97969.75;;;27.16;56.53
13235;BME280;6683;48.506;9.050;2023-06-22T07:12:10;97955.69;;;27.27;56.14
13235;BME280;6683;48.506;9.050;2023-06-22T07:15:13;97940.88;;;27.38;55.52
13235;BME280;6683;48.506;9.050;2023-06-22T07:18:15;97933.13;;;27.45;55.25
13235;BME280;6683;48.506;9.050;2023-06-22T07:21:19;97929.13;;;27.56;54.99
13235;BME280;6683;48.506;9.050;2023-06-22T07:24:21;97929.72;;;27.67;54.63
13235;BME280;6683;48.506;9.050;2023-06-22T07:27:24;97924.56;;;27.79;54.32
13235;BME280;6683;48.506;9.050;2023-06-22T07:30:27;97907.16;;;27.94;54.56
13235;BME280;6683;48.506;9.050;2023-06-22T07:33:29;97907.53;;;28.14;53.82
13235;BME280;6683;48.506;9.050;2023-06-22T07:36:33;97908.38;;;28.37;53.52
13235;BME280;6683;48.506;9.050;2023-06-22T07:39:36;97906.28;;;28.56;53.07
13235;BME280;6683;48.506;9.050;2023-06-22T07:42:38;97903.38;;;28.75;52.45
13235;BME280;6683;48.506;9.050;2023-06-22T07:45:40;97906.00;;;28.88;52.17
13235;BME280;6683;48.506;9.050;2023-06-22T07:48:52;97912.31;;;28.97;51.67
13235;BME280;6683;48.506;9.050;2023-06-22T07:51:56;97902.47;;;29.10;51.50
13235;BME280;6683;48.506;9.050;2023-06-22T07:54:59;97889.13;;;29.31;51.15
13235;BME280;6683;48.506;9.050;2023-06-22T07:58:01;97909.81;;;29.49;51.08
13235;BME280;6683;48.506;9.050;2023-06-22T08:01:04;97922.50;;;29.62;50.49
13235;BME280;6683;48.506;9.050;2023-06-22T08:04:07;97932.34;;;29.80;50.30
13235;BME280;6683;48.506;9.050;2023-06-22T08:07:10;97934.94;;;29.93;49.80
13235;BME280;6683;48.506;9.050;2023-06-22T08:10:13;97949.03;;;30.04;49.25
13235;BME280;6683;48.506;9.050;2023-06-22T08:13:15;97967.81;;;30.14;48.95
13235;BME280;6683;48.506;9.050;2023-06-22T08:16:18;97967.31;;;30.29;48.61
13235;BME280;6683;48.506;9.050;2023-06-22T08:19:21;97969.59;;;30.44;48.20
13235;BME280;6683;48.506;9.050;2023-06-22T08:22:26;97976.97;;;30.61;47.93
13235;BME280;6683;48.506;9.050;2023-06-22T08:25:28;97969.75;;;30.73;47.94
13235;BME280;6683;48.506;9.050;2023-06-22T08:28:30;97962.06;;;30.93;47.46
13235;BME280;6683;48.506;9.050;2023-06-22T08:31:33;97969.41;;;31.09;46.77
13235;BME280;6683;48.506;9.050;2023-06-22T08:34:36;97986.91;;;31.08;46.45
13235;BME280;6683;48.506;9.050;2023-06-22T08:37:44;97983.69;;;31.06;46.44
13235;BME280;6683;48.506;9.050;2023-06-22T08:40:51;97982.22;;;31.09;46.06
13235;BME280;6683;48.506;9.050;2023-06-22T08:43:54;97974.53;;;31.02;46.04
13235;BME280;6683;48.506;9.050;2023-06-22T08:46:57;97953.53;;;30.94;46.20
13235;BME280;6683;48.506;9.050;2023-06-22T08:49:59;97938.81;;;30.95;46.24
13235;BME280;6683;48.506;9.050;2023-06-22T08:53:04;97951.47;;;31.00;45.97
13235;BME280;6683;48.506;9.050;2023-06-22T08:56:06;97970.22;;;31.10;45.61
13235;BME280;6683;48.506;9.050;2023-06-22T08:59:09;97965.69;;;31.14;45.62
13235;BME280;6683;48.506;9.050;2023-06-22T09:02:12;97965.19;;;31.29;45.42
13235;BME280;6683;48.506;9.050;2023-06-22T09:05:14;97973.97;;;31.43;45.11
13235;BME280;6683;48.506;9.050;2023-06-22T09:08:18;97968.75;;;31.59;44.94
13235;BME280;6683;48.506;9.050;2023-06-22T09:11:21;97960.69;;;31.71;44.80
13235;BME280;6683;48.506;9.050;2023-06-22T09:14:24;97954.53;;;31.82;44.61
13235;BME280;6683;48.506;9.050;2023-06-22T09:17:27;97937.13;;;31.95;44.33
13235;BME280;6683;48.506;9.050;2023-06-22T09:20:30;97935.63;;;32.06;44.04
13235;BME280;6683;48.506;9.050;2023-06-22T09:23:34;97921.03;;;32.23;43.63
13235;BME280;6683;48.506;9.050;2023-06-22T09:26:37;97905.34;;;32.32;43.45
13235;BME280;6683;48.506;9.050;2023-06-22T09:29:40;97895.28;;;32.45;43.10
13235;BME280;6683;48.506;9.050;2023-06-22T09:32:42;97896.97;;;32.58;43.18
13235;BME280;6683;48.506;9.050;2023-06-22T09:35:44;97910.91;;;32.65;42.55
13235;BME280;6683;48.506;9.050;2023-06-22T09:38:49;97910.66;;;32.70;42.55
13235;BME280;6683;48.506;9.050;2023-06-22T09:41:57;97904.56;;;32.85;42.54
13235;BME280;6683;48.506;9.050;2023-06-22T09:44:59;97887.31;;;33.05;41.95
13235;BME280;6683;48.506;9.050;2023-06-22T09:48:02;97879.91;;;33.30;41.94
13235;BME280;6683;48.506;9.050;2023-06-22T09:51:05;97869.19;;;33.49;41.63
13235;BME280;6683;48.506;9.050;2023-06-22T09:54:09;97858.25;;;33.61;41.20
13235;BME280;6683;48.506;9.050;2023-06-22T09:57:11;97860.88;;;33.69;41.28
13235;BME280;6683;48.506;9.050;2023-06-22T10:00:17;97858.72;;;33.75;40.42
13235;BME280;6683;48.506;9.050;2023-06-22T10:03:20;97851.84;;;33.81;40.11
13235;BME280;6683;48.506;9.050;2023-06-22T10:06:23;97842.38;;;33.78;40.20
13235;BME280;6683;48.506;9.050;2023-06-22T10:09:27;97837.47;;;33.84;40.38
13235;BME280;6683;48.506;9.050;2023-06-22T10:12:29;97844.94;;;33.99;40.20
13235;BME280;6683;48.506;9.050;2023-06-22T10:15:32;97839.38;;;34.08;40.23
13235;BME280;6683;48.506;9.050;2023-06-22T10:18:34;97831.91;;;34.20;39.99
13235;BME280;6683;48.506;9.050;2023-06-22T10:21:37;97829.00;;;34.29;39.80
13235;BME280;6683;48.506;9.050;2023-06-22T10:24:40;97819.03;;;34.36;39.41
13235;BME280;6683;48.506;9.050;2023-06-22T10:27:45;97819.91;;;34.52;39.22
13235;BME280;6683;48.506;9.050;2023-06-22T10:30:48;97820.63;;;34.65;38.76
13235;BME280;6683;48.506;9.050;2023-06-22T10:33:51;97821.16;;;34.71;38.56
13235;BME280;6683;48.506;9.050;2023-06-22T10:36:54;97817.25;;;34.72;38.60
13235;BME280;6683;48.506;9.050;2023-06-22T10:39:58;97818.94;;;34.76;39.05
13235;BME280;6683;48.506;9.050;2023-06-22T10:43:01;97811.78;;;34.87;38.78
13235;BME280;6683;48.506;9.050;2023-06-22T10:46:04;97804.66;;;34.98;38.58
13235;BME280;6683;48.506;9.050;2023-06-22T10:49:06;97799.50;;;35.12;38.63
13235;BME280;6683;48.506;9.050;2023-06-22T10:52:09;97809.25;;;35.25;38.46
13235;BME280;6683;48.506;9.050;2023-06-22T10:55:12;97803.47;;;35.30;38.30
13235;BME280;6683;48.506;9.050;2023-06-22T10:58:15;97814.50;;;35.34;38.02
13235;BME280;6683;48.506;9.050;2023-06-22T11:01:17;97813.44;;;35.38;37.60
13235;BME280;6683;48.506;9.050;2023-06-22T11:04:20;97804.25;;;35.47;37.53
13235;BME280;6683;48.506;9.050;2023-06-22T11:07:22;97810.28;;;35.52;37.35
13235;BME280;6683;48.506;9.050;2023-06-22T11:10:26;97799.00;;;35.57;37.51
13235;BME280;6683;48.506;9.050;2023-06-22T11:13:29;97805.28;;;35.58;37.49
13235;BME280;6683;48.506;9.050;2023-06-22T11:16:31;97811.59;;;35.58;37.20
13235;BME280;6683;48.506;9.050;2023-06-22T11:19:35;97790.41;;;35.59;36.96
13235;BME280;6683;48.506;9.050;2023-06-22T11:22:39;97780.56;;;35.58;37.00
13235;BME280;6683;48.506;9.050;2023-06-22T11:25:43;97777.81;;;35.58;36.79
13235;BME280;6683;48.506;9.050;2023-06-22T11:28:45;97762.84;;;35.55;36.91
13235;BME280;6683;48.506;9.050;2023-06-22T11:31:48;97773.78;;;35.52;37.03
13235;BME280;6683;48.506;9.050;2023-06-22T11:34:50;97809.41;;;35.48;37.07
13235;BME280;6683;48.506;9.050;2023-06-22T11:37:53;97809.72;;;35.47;36.87
13235;BME280;6683;48.506;9.050;2023-06-22T11:40:58;97809.03;;;35.50;37.37
13235;BME280;6683;48.506;9.050;2023-06-22T11:44:01;97792.00;;;35.60;37.17
13235;BME280;6683;48.506;9.050;2023-06-22T11:47:05;97783.56;;;35.68;37.15
13235;BME280;6683;48.506;9.050;2023-06-22T11:50:09;97787.59;;;35.74;36.97
13235;BME280;6683;48.506;9.050;2023-06-22T11:53:11;97787.66;;;35.78;37.07
13235;BME280;6683;48.506;9.050;2023-06-22T11:56:18;97793.16;;;35.78;37.09
13235;BME280;6683;48.506;9.050;2023-06-22T11:59:21;97788.41;;;35.75;37.06
13235;BME280;6683;48.506;9.050;2023-06-22T12:02:23;97789.03;;;35.68;36.98
13235;BME280;6683;48.506;9.050;2023-06-22T12:05:26;97794.47;;;35.65;37.09
13235;BME280;6683;48.506;9.050;2023-06-22T12:08:28;97782.63;;;35.61;37.39
13235;BME280;6683;48.506;9.050;2023-06-22T12:11:32;97778.56;;;35.55;37.25
13235;BME280;6683;48.506;9.050;2023-06-22T12:14:34;97794.41;;;35.46;37.32
13235;BME280;6683;48.506;9.050;2023-06-22T12:17:37;97814.97;;;35.36;37.44
13235;BME280;6683;48.506;9.050;2023-06-22T12:20:40;97824.09;;;35.24;38.05
13235;BME280;6683;48.506;9.050;2023-06-22T12:23:42;97836.88;;;35.17;37.86
13235;BME280;6683;48.506;9.050;2023-06-22T12:26:46;97831.91;;;35.07;38.33
13235;BME280;6683;48.506;9.050;2023-06-22T12:29:48;97836.31;;;34.96;38.48
13235;BME280;6683;48.506;9.050;2023-06-22T12:32:51;97835.31;;;34.88;38.40
13235;BME280;6683;48.506;9.050;2023-06-22T12:35:53;97827.38;;;34.83;38.76
13235;BME280;6683;48.506;9.050;2023-06-22T12:38:55;97828.41;;;34.79;38.51
13235;BME280;6683;48.506;9.050;2023-06-22T12:41:59;97815.06;;;34.77;38.74
13235;BME280;6683;48.506;9.050;2023-06-22T12:45:02;97819.22;;;34.71;38.63
13235;BME280;6683;48.506;9.050;2023-06-22T12:48:05;97813.97;;;34.66;38.57
13235;BME280;6683;48.506;9.050;2023-06-22T12:51:09;97815.47;;;34.64;38.58
13235;BME280;6683;48.506;9.050;2023-06-22T12:54:12;97818.22;;;34.64;39.16
13235;BME280;6683;48.506;9.050;2023-06-22T12:57:15;97809.66;;;34.65;39.11
13235;BME280;6683;48.506;9.050;2023-06-22T13:00:19;97795.59;;;34.67;38.93
13235;BME280;6683;48.506;9.050;2023-06-22T13:03:21;97788.50;;;34.66;38.61
13235;BME280;6683;48.506;9.050;2023-06-22T13:06:25;97786.13;;;34.64;38.13
13235;BME280;6683;48.506;9.050;2023-06-22T13:09:27;97786.31;;;34.71;38.64
13235;BME280;6683;48.506;9.050;2023-06-22T13:12:32;97787.91;;;34.88;37.98
13235;BME280;6683;48.506;9.050;2023-06-22T13:15:35;97795.25;;;34.99;37.81
13235;BME280;6683;48.506;9.050;2023-06-22T13:18:37;97789.16;;;35.06;37.43
13235;BME280;6683;48.506;9.050;2023-06-22T13:21:40;97786.06;;;35.07;37.69
13235;BME280;6683;48.506;9.050;2023-06-22T13:24:43;97777.19;;;35.14;37.48
13235;BME280;6683;48.506;9.050;2023-06-22T13:27:47;97775.69;;;35.16;37.18
13235;BME280;6683;48.506;9.050;2023-06-22T13:30:49;97782.75;;;35.17;37.23
13235;BME280;6683;48.506;9.050;2023-06-22T13:33:51;97785.06;;;35.15;37.48
13235;BME280;6683;48.506;9.050;2023-06-22T13:36:54;97780.13;;;35.21;37.30
13235;BME280;6683;48.506;9.050;2023-06-22T13:39:56;97778.25;;;35.25;37.41
13235;BME280;6683;48.506;9.050;2023-06-22T13:43:01;97776.38;;;35.29;37.23
13235;BME280;6683;48.506;9.050;2023-06-22T13:46:04;97769.81;;;35.33;37.27
13235;BME280;6683;48.506;9.050;2023-06-22T13:49:07;97763.69;;;35.40;37.28
13235;BME280;6683;48.506;9.050;2023-06-22T13:52:09;97748.81;;;35.41;37.05
13235;BME280;6683;48.506;9.050;2023-06-22T13:55:13;97732.31;;;35.41;37.01
13235;BME280;6683;48.506;9.050;2023-06-22T13:58:18;97728.72;;;35.37;37.06
13235;BME280;6683;48.506;9.050;2023-06-22T14:01:21;97732.16;;;35.34;37.54
13235;BME280;6683;48.506;9.050;2023-06-22T14:04:24;97723.06;;;35.30;37.27
13235;BME280;6683;48.506;9.050;2023-06-22T14:07:26;97725.28;;;35.24;37.35
13235;BME280;6683;48.506;9.050;2023-06-22T14:10:29;97715.50;;;35.23;37.26
13235;BME280;6683;48.506;9.050;2023-06-22T14:13:32;97713.94;;;35.26;37.46
13235;BME280;6683;48.506;9.050;2023-06-22T14:16:36;97714.81;;;35.30;37.05
13235;BME280;6683;48.506;9.050;2023-06-22T14:19:39;97721.66;;;35.36;37.07
13235;BME280;6683;48.506;9.050;2023-06-22T14:22:41;97726.13;;;35.44;37.54
13235;BME280;6683;48.506;9.050;2023-06-22T14:25:44;97730.72;;;35.56;37.44
13235;BME280;6683;48.506;9.050;2023-06-22T14:28:48;97733.69;;;35.66;37.49
13235;BME280;6683;48.506;9.050;2023-06-22T14:31:51;97744.81;;;35.73;36.99
13235;BME280;6683;48.506;9.050;2023-06-22T14:34:53;97737.34;;;35.74;36.87
13235;BME280;6683;48.506;9.050;2023-06-22T14:37:55;97735.25;;;35.86;36.95
13235;BME280;6683;48.506;9.050;2023-06-22T14:40:58;97723.31;;;35.94;36.82
13235;BME280;6683;48.506;9.050;2023-06-22T14:44:02;97723.38;;;35.98;36.67
13235;BME280;6683;48.506;9.050;2023-06-22T14:47:05;97726.13;;;35.98;36.51
13235;BME280;6683;48.506;9.050;2023-06-22T14:50:08;97726.50;;;35.96;35.68
13235;BME280;6683;48.506;9.050;2023-06-22T14:53:11;97721.25;;;35.91;34.79
13235;BME280;6683;48.506;9.050;2023-06-22T14:56:15;97713.81;;;35.92;33.94
13235;BME280;6683;48.506;9.050;2023-06-22T14:59:19;97712.19;;;35.91;33.88
13235;BME280;6683;48.506;9.050;2023-06-22T15:02:21;97707.78;;;35.86;33.14
13235;BME280;6683;48.506;9.050;2023-06-22T15:05:24;97720.22;;;35.80;32.56
13235;BME280;6683;48.506;9.050;2023-06-22T15:08:26;97719.38;;;35.76;32.39
13235;BME280;6683;48.506;9.050;2023-06-22T15:11:28;97730.28;;;35.73;31.99
13235;BME280;6683;48.506;9.050;2023-06-22T15:14:32;97722.25;;;35.64;31.57
13235;BME280;6683;48.506;9.050;2023-06-22T15:17:34;97720.91;;;35.55;30.80
13235;BME280;6683;48.506;9.050;2023-06-22T15:20:37;97719.03;;;35.43;30.36
13235;BME280;6683;48.506;9.050;2023-06-22T15:23:39;97719.59;;;35.33;30.06
13235;BME280;6683;48.506;9.050;2023-06-22T15:26:42;97719.00;;;35.24;30.72
13235;BME280;6683;48.506;9.050;2023-06-22T15:29:46;97714.50;;;35.16;30.40
13235;BME280;6683;48.506;9.050;2023-06-22T15:32:49;97716.75;;;35.10;30.16
13235;BME280;6683;48.506;9.050;2023-06-22T15:35:51;97717.75;;;35.02;29.79
13235;BME280;6683;48.506;9.050;2023-06-22T15:38:55;97721.78;;;34.93;28.94
13235;BME280;6683;48.506;9.050;2023-06-22T15:41:57;97711.63;;;34.78;29.52
13235;BME280;6683;48.506;9.050;2023-06-22T15:45:01;97702.72;;;34.65;29.18
13235;BME280;6683;48.506;9.050;2023-06-22T15:48:04;97705.53;;;34.53;29.22
13235;BME280;6683;48.506;9.050;2023-06-22T15:51:06;97719.66;;;34.39;29.47
13235;BME280;6683;48.506;9.050;2023-06-22T15:54:09;97723.97;;;34.25;29.20
13235;BME280;6683;48.506;9.050;2023-06-22T15:57:11;97719.72;;;34.12;29.65
13235;BME280;6683;48.506;9.050;2023-06-22T16:00:17;97717.03;;;34.00;29.90
13235;BME280;6683;48.506;9.050;2023-06-22T16:03:20;97718.75;;;33.92;29.92
13235;BME280;6683;48.506;9.050;2023-06-22T16:06:23;97737.66;;;33.81;29.75
13235;BME280;6683;48.506;9.050;2023-06-22T16:09:25;97734.94;;;33.69;29.92
13235;BME280;6683;48.506;9.050;2023-06-22T16:12:28;97703.75;;;33.58;30.54
13235;BME280;6683;48.506;9.050;2023-06-22T16:15:32;97679.88;;;33.47;30.53
13235;BME280;6683;48.506;9.050;2023-06-22T16:18:34;97665.00;;;33.32;31.39
13235;BME280;6683;48.506;9.050;2023-06-22T16:21:37;97628.94;;;33.15;31.40